createdAt,value
2022-12-29T00:00:03.031Z,50.00
2022-12-29T00:02:14.740Z,50.50
2022-12-29T00:04:16.729Z,50.40
2022-12-29T00:06:18.624Z,50.30
2022-12-29T00:08:20.577Z,50.40
2022-12-29T00:10:22.622Z,50.10
2022-12-29T00:12:24.637Z,50.20
2022-12-29T00:14:27.426Z,50.10
2022-12-29T00:16:29.975Z,50.20
2022-12-29T00:18:32.057Z,50.40
2022-12-29T00:20:34.813Z,50.00
2022-12-29T00:22:37.266Z,50.30
2022-12-29T00:24:39.733Z,50.10
2022-12-29T00:26:42.145Z,50.00
2022-12-29T00:28:54.476Z,50.10
2022-12-29T00:31:00.663Z,50.60
2022-12-29T00:33:17.022Z,50.40
2022-12-29T00:35:30.768Z,50.50
2022-12-29T00:37:32.705Z,50.60
2022-12-29T00:39:35.529Z,50.40
2022-12-29T00:41:37.639Z,50.10
2022-12-29T00:43:39.612Z,50.10
2022-12-29T00:45:44.280Z,50.00
2022-12-29T00:47:46.328Z,50.60
2022-12-29T00:49:48.354Z,50.00
2022-12-29T00:51:50.537Z,50.10
2022-12-29T00:53:52.550Z,50.00
2022-12-29T00:55:54.574Z,50.10
2022-12-29T00:57:56.586Z,50.00
2022-12-29T00:59:58.641Z,49.90
2022-12-29T01:02:00.903Z,49.90
2022-12-29T01:04:05.038Z,50.00
2022-12-29T01:06:08.253Z,50.30
2022-12-29T01:08:10.205Z,50.40
2022-12-29T01:10:12.192Z,50.00
2022-12-29T01:12:14.413Z,50.10
2022-12-29T01:14:17.142Z,50.00
2022-12-29T01:16:20.122Z,50.40
2022-12-29T01:18:22.765Z,49.90
2022-12-29T01:20:24.739Z,50.30
2022-12-29T01:22:26.738Z,50.00
2022-12-29T01:24:30.566Z,50.10
2022-12-29T01:26:32.620Z,50.00
2022-12-29T01:28:34.615Z,49.90
2022-12-29T01:30:36.687Z,50.00
2022-12-29T01:32:38.764Z,50.00
2022-12-29T01:34:40.727Z,50.30
2022-12-29T01:36:42.814Z,50.10
2022-12-29T01:38:45.161Z,50.00
2022-12-29T01:40:48.416Z,50.50
2022-12-29T01:42:50.559Z,50.20
2022-12-29T01:44:54.134Z,50.20
2022-12-29T01:46:56.272Z,50.60
2022-12-29T01:49:03.684Z,50.30
2022-12-29T01:51:05.855Z,50.60
2022-12-29T01:53:15.039Z,50.20
2022-12-29T01:55:17.152Z,50.50
2022-12-29T01:57:24.504Z,50.20
2022-12-29T01:59:29.593Z,50.50
2022-12-29T02:01:31.937Z,50.30
2022-12-29T02:03:37.137Z,50.30
2022-12-29T02:05:44.842Z,50.60
2022-12-29T02:07:48.860Z,50.70
2022-12-29T02:09:51.910Z,50.60
2022-12-29T02:11:54.084Z,50.40
2022-12-29T02:13:56.157Z,50.20
2022-12-29T02:16:13.233Z,50.20
2022-12-29T02:18:26.529Z,50.10
2022-12-29T02:20:34.527Z,50.10
2022-12-29T02:22:36.792Z,50.00
2022-12-29T02:24:41.590Z,49.90
2022-12-29T02:27:01.946Z,50.10
2022-12-29T02:29:09.637Z,50.20
2022-12-29T02:31:31.956Z,50.30
2022-12-29T02:33:48.249Z,50.30
2022-12-29T02:36:08.056Z,50.30
2022-12-29T02:38:19.149Z,50.30
2022-12-29T02:40:23.592Z,50.30
2022-12-29T02:42:42.766Z,50.20
2022-12-29T02:45:12.221Z,50.30
2022-12-29T02:47:34.531Z,50.20
2022-12-29T02:49:46.522Z,50.30
2022-12-29T02:52:01.286Z,50.30
2022-12-29T02:54:03.772Z,50.20
2022-12-29T02:56:05.785Z,50.10
2022-12-29T02:58:07.788Z,50.00
2022-12-29T03:00:09.877Z,49.90
2022-12-29T03:02:17.867Z,50.10
2022-12-29T03:04:31.997Z,50.10
2022-12-29T03:06:44.473Z,50.20
2022-12-29T03:08:55.454Z,50.30
2022-12-29T03:11:02.971Z,50.20
2022-12-29T03:13:07.523Z,50.20
2022-12-29T03:15:14.437Z,50.20
2022-12-29T03:17:25.362Z,50.10
2022-12-29T03:19:38.414Z,50.10
2022-12-29T03:21:45.172Z,50.10
2022-12-29T03:23:50.445Z,50.20
2022-12-29T03:25:53.656Z,50.20
2022-12-29T03:27:57.876Z,50.20
2022-12-29T03:30:05.199Z,50.20
2022-12-29T03:32:08.066Z,50.10
2022-12-29T03:34:11.110Z,50.10
2022-12-29T03:36:15.127Z,50.10
2022-12-29T03:38:20.531Z,50.10
2022-12-29T03:40:24.062Z,50.20
2022-12-29T03:42:29.112Z,50.10
2022-12-29T03:44:35.841Z,50.00
2022-12-29T03:46:38.154Z,50.00
2022-12-29T03:48:40.194Z,49.90
2022-12-29T03:50:42.203Z,49.80
2022-12-29T03:52:44.798Z,49.80
2022-12-29T03:54:46.643Z,49.80
2022-12-29T03:56:49.213Z,49.90
2022-12-29T03:58:55.777Z,49.90
2022-12-29T04:01:12.992Z,49.90
2022-12-29T04:03:14.947Z,49.80
2022-12-29T04:05:17.149Z,49.80
2022-12-29T04:07:19.004Z,49.70
2022-12-29T04:09:20.952Z,49.70
2022-12-29T04:11:28.344Z,49.60
2022-12-29T04:13:33.936Z,49.50
2022-12-29T04:15:39.083Z,49.50
2022-12-29T04:17:41.026Z,49.50
2022-12-29T04:19:43.135Z,49.40
2022-12-29T04:21:45.118Z,49.60
2022-12-29T04:23:49.984Z,49.50
2022-12-29T04:25:55.145Z,49.60
2022-12-29T04:27:56.939Z,49.50
2022-12-29T04:30:31.087Z,49.50
2022-12-29T04:32:42.351Z,49.60
2022-12-29T04:34:44.158Z,49.50
2022-12-29T04:36:46.055Z,49.40
2022-12-29T04:38:48.506Z,49.60
2022-12-29T04:40:50.578Z,49.60
2022-12-29T04:42:53.804Z,49.70
2022-12-29T04:44:56.803Z,49.60
2022-12-29T04:47:12.576Z,49.60
2022-12-29T04:49:28.256Z,49.60
2022-12-29T04:51:30.053Z,49.50
2022-12-29T04:53:33.721Z,49.40
2022-12-29T04:55:35.851Z,49.50
2022-12-29T04:57:37.759Z,49.60
2022-12-29T04:59:39.675Z,49.60
2022-12-29T05:01:43.626Z,49.50
2022-12-29T05:03:46.104Z,49.60
2022-12-29T05:05:48.130Z,49.70
2022-12-29T05:07:50.122Z,49.60
2022-12-29T05:09:53.785Z,49.50
2022-12-29T05:11:55.650Z,49.30
2022-12-29T05:13:59.199Z,49.30
2022-12-29T05:16:01.121Z,49.30
2022-12-29T05:18:03.369Z,49.20
2022-12-29T05:20:06.251Z,49.30
2022-12-29T05:22:09.022Z,49.50
2022-12-29T05:24:10.898Z,49.40
2022-12-29T05:26:13.108Z,49.40
2022-12-29T05:28:29.136Z,49.40
2022-12-29T05:30:51.837Z,49.40
2022-12-29T05:32:57.066Z,49.60
2022-12-29T05:34:59.063Z,49.50
2022-12-29T05:37:01.219Z,49.50
2022-12-29T05:39:03.709Z,49.50
2022-12-29T05:41:05.985Z,49.50
2022-12-29T05:43:43.340Z,49.60
2022-12-29T05:46:11.803Z,49.60
2022-12-29T05:48:38.310Z,49.50
2022-12-29T05:50:50.598Z,49.60
2022-12-29T05:52:58.063Z,49.60
2022-12-29T05:55:00.188Z,49.60
2022-12-29T05:57:03.978Z,49.60
2022-12-29T05:59:06.508Z,49.50
2022-12-29T06:01:09.124Z,49.60
2022-12-29T06:03:11.299Z,49.60
2022-12-29T06:05:13.208Z,49.60
2022-12-29T06:07:15.479Z,49.70
2022-12-29T06:09:20.178Z,49.60
2022-12-29T06:11:22.107Z,49.40
2022-12-29T06:13:34.845Z,49.40
2022-12-29T06:15:37.097Z,49.30
2022-12-29T06:17:41.431Z,49.30
2022-12-29T06:19:43.344Z,49.20
2022-12-29T06:21:47.446Z,49.20
2022-12-29T06:23:49.866Z,49.20
2022-12-29T06:25:51.882Z,49.40
2022-12-29T06:27:53.799Z,49.50
2022-12-29T06:29:55.950Z,49.50
2022-12-29T06:32:01.999Z,49.60
2022-12-29T06:34:08.501Z,49.50
2022-12-29T06:36:14.735Z,49.60
2022-12-29T06:38:16.674Z,49.60
2022-12-29T06:40:18.943Z,49.50
2022-12-29T06:42:50.359Z,49.60
2022-12-29T06:45:21.631Z,49.30
2022-12-29T06:47:23.564Z,49.90
2022-12-29T06:49:25.835Z,49.40
2022-12-29T06:51:27.775Z,49.40
2022-12-29T06:53:29.852Z,49.40
2022-12-29T06:55:31.924Z,49.30
2022-12-29T06:57:33.696Z,49.30
2022-12-29T06:59:35.676Z,49.30
2022-12-29T07:01:37.766Z,49.30
2022-12-29T07:03:41.842Z,49.30
2022-12-29T07:05:43.792Z,49.40
2022-12-29T07:07:48.480Z,49.40
2022-12-29T07:09:50.304Z,49.40
2022-12-29T07:11:52.160Z,49.20
2022-12-29T07:13:54.288Z,49.10
2022-12-29T07:15:56.233Z,49.10
2022-12-29T07:18:00.751Z,49.00
2022-12-29T07:20:02.823Z,49.00
2022-12-29T07:22:04.857Z,48.90
2022-12-29T07:24:06.928Z,49.00
2022-12-29T07:26:10.732Z,49.00
2022-12-29T07:28:12.593Z,49.10
2022-12-29T07:30:14.415Z,49.00
2022-12-29T07:32:16.468Z,49.00
2022-12-29T07:34:19.310Z,49.10
2022-12-29T07:36:24.676Z,49.20
2022-12-29T07:38:28.760Z,49.20
2022-12-29T07:40:30.551Z,49.20
2022-12-29T07:42:32.716Z,49.10
2022-12-29T07:44:35.301Z,49.10
2022-12-29T07:46:57.714Z,49.10
2022-12-29T07:49:02.339Z,49.00
2022-12-29T07:51:04.170Z,49.60
2022-12-29T07:53:06.210Z,49.00
2022-12-29T07:55:08.151Z,48.90
2022-12-29T07:57:10.074Z,49.00
2022-12-29T07:59:12.007Z,48.90
2022-12-29T08:01:14.696Z,49.00
2022-12-29T08:03:16.643Z,49.10
2022-12-29T08:05:18.638Z,49.00
2022-12-29T08:07:20.570Z,49.00
2022-12-29T08:09:24.195Z,48.90
2022-12-29T08:11:26.551Z,49.20
2022-12-29T08:13:29.310Z,48.60
2022-12-29T08:15:32.651Z,48.50
2022-12-29T08:17:34.751Z,48.40
2022-12-29T08:19:37.350Z,48.30
2022-12-29T08:21:39.202Z,48.30
2022-12-29T08:23:41.082Z,48.30
2022-12-29T08:25:43.037Z,48.40
2022-12-29T08:27:44.958Z,48.40
2022-12-29T08:29:47.189Z,48.50
2022-12-29T08:31:49.144Z,48.40
2022-12-29T08:33:51.496Z,48.30
2022-12-29T08:35:53.223Z,48.50
2022-12-29T08:37:55.016Z,48.50
2022-12-29T08:39:56.758Z,48.50
2022-12-29T08:41:58.564Z,48.40
2022-12-29T08:44:00.311Z,48.40
2022-12-29T08:46:02.284Z,48.40
2022-12-29T08:48:04.130Z,48.30
2022-12-29T08:50:06.254Z,48.40
2022-12-29T08:52:08.448Z,48.40
2022-12-29T08:54:10.375Z,48.30
2022-12-29T08:56:12.151Z,48.30
2022-12-29T08:58:21.274Z,48.30
2022-12-29T09:00:23.143Z,48.30
2022-12-29T09:02:27.475Z,48.40
2022-12-29T09:04:29.603Z,48.30
2022-12-29T09:06:35.118Z,48.20
2022-12-29T09:08:40.000Z,48.30
2022-12-29T09:10:41.821Z,48.20
2022-12-29T09:12:43.594Z,48.10
2022-12-29T09:14:47.095Z,48.00
2022-12-29T09:16:48.821Z,48.00
2022-12-29T09:18:50.618Z,47.90
2022-12-29T09:20:59.273Z,48.00
2022-12-29T09:23:01.266Z,48.00
2022-12-29T09:25:03.221Z,48.00
2022-12-29T09:27:04.986Z,48.00
2022-12-29T09:29:06.684Z,48.10
2022-12-29T09:31:08.555Z,48.10
2022-12-29T09:33:10.335Z,48.10
2022-12-29T09:35:12.498Z,48.10
2022-12-29T09:37:14.271Z,48.10
2022-12-29T09:39:16.083Z,48.00
2022-12-29T09:41:39.106Z,48.10
2022-12-29T09:43:53.887Z,48.00
2022-12-29T09:45:55.589Z,48.00
2022-12-29T09:47:57.483Z,48.10
2022-12-29T09:50:02.337Z,48.10
2022-12-29T09:52:06.274Z,48.10
2022-12-29T09:54:26.274Z,48.10
2022-12-29T09:56:28.823Z,48.00
2022-12-29T09:58:41.748Z,48.00
2022-12-29T10:01:02.312Z,48.00
2022-12-29T10:03:10.640Z,47.90
2022-12-29T10:05:18.419Z,48.00
2022-12-29T10:07:30.559Z,47.90
2022-12-29T10:09:54.404Z,48.00
2022-12-29T10:12:02.302Z,47.90
2022-12-29T10:14:19.365Z,48.00
2022-12-29T10:16:25.449Z,48.10
2022-12-29T10:18:33.311Z,48.00
2022-12-29T10:20:50.300Z,48.10
2022-12-29T10:23:10.738Z,48.20
2022-12-29T10:25:25.100Z,48.20
2022-12-29T10:27:31.941Z,47.90
2022-12-29T10:29:36.019Z,47.90
2022-12-29T10:32:01.106Z,47.80
2022-12-29T10:34:06.775Z,47.70
2022-12-29T10:36:31.968Z,47.70
2022-12-29T10:38:40.704Z,47.70
2022-12-29T10:40:50.067Z,47.60
2022-12-29T10:42:53.630Z,47.60
2022-12-29T10:44:56.865Z,47.60
2022-12-29T10:47:00.744Z,47.70
2022-12-29T10:49:02.586Z,47.50
2022-12-29T10:51:06.069Z,47.40
2022-12-29T10:53:07.919Z,47.60
2022-12-29T10:55:13.870Z,47.50
2022-12-29T10:57:27.056Z,47.60
2022-12-29T10:59:34.033Z,47.40
2022-12-29T11:01:41.553Z,47.50
2022-12-29T11:03:49.482Z,47.30
2022-12-29T11:05:51.239Z,47.30
2022-12-29T11:07:54.902Z,47.60
2022-12-29T11:10:16.247Z,47.80
2022-12-29T11:12:28.701Z,47.50
2022-12-29T11:14:31.322Z,47.30
2022-12-29T11:16:34.153Z,47.50
2022-12-29T11:18:39.822Z,47.60
2022-12-29T11:20:42.005Z,47.40
2022-12-29T11:22:45.211Z,47.70
2022-12-29T11:24:47.714Z,47.80
2022-12-29T11:26:50.683Z,47.60
2022-12-29T11:29:11.162Z,47.60
2022-12-29T11:31:16.770Z,47.60
2022-12-29T11:33:18.570Z,47.70
2022-12-29T11:35:39.068Z,47.60
2022-12-29T11:37:42.424Z,47.70
2022-12-29T11:39:56.261Z,48.00
2022-12-29T11:41:58.147Z,47.80
2022-12-29T11:44:02.311Z,47.80
2022-12-29T11:46:04.771Z,47.50
2022-12-29T11:48:16.085Z,47.40
2022-12-29T11:50:26.442Z,47.40
2022-12-29T11:52:30.112Z,47.30
2022-12-29T11:54:33.718Z,47.30
2022-12-29T11:56:40.749Z,47.20
2022-12-29T11:58:43.681Z,47.20
2022-12-29T12:00:47.038Z,47.20
2022-12-29T12:02:51.717Z,47.20
2022-12-29T12:04:57.218Z,47.20
2022-12-29T12:07:02.087Z,47.50
2022-12-29T12:09:06.857Z,47.20
2022-12-29T12:11:17.439Z,47.00
2022-12-29T12:13:30.954Z,47.00
2022-12-29T12:15:40.374Z,47.00
2022-12-29T12:17:54.542Z,47.10
2022-12-29T12:20:05.954Z,47.10
2022-12-29T12:22:26.092Z,47.40
2022-12-29T12:24:46.410Z,47.40
2022-12-29T12:26:57.801Z,47.30
2022-12-29T12:29:09.016Z,47.10
2022-12-29T12:31:19.792Z,47.00
2022-12-29T12:33:21.617Z,47.10
2022-12-29T12:35:43.647Z,47.00
2022-12-29T12:37:51.434Z,47.10
2022-12-29T12:39:53.264Z,47.00
2022-12-29T12:41:54.949Z,47.20
2022-12-29T12:44:11.351Z,47.10
2022-12-29T12:46:25.334Z,47.20
2022-12-29T12:48:51.274Z,47.10
2022-12-29T12:50:52.989Z,47.30
2022-12-29T12:53:03.613Z,47.70
2022-12-29T12:55:11.163Z,47.30
2022-12-29T12:57:18.857Z,47.00
2022-12-29T12:59:38.812Z,47.10
2022-12-29T13:01:47.202Z,47.10
2022-12-29T13:04:05.496Z,47.20
2022-12-29T13:06:27.518Z,47.10
2022-12-29T13:08:41.151Z,47.10
2022-12-29T13:10:44.953Z,47.00
2022-12-29T13:12:55.036Z,46.80
2022-12-29T13:14:59.697Z,46.90
2022-12-29T13:17:18.428Z,47.10
2022-12-29T13:19:26.294Z,47.10
2022-12-29T13:21:30.803Z,47.20
2022-12-29T13:23:42.982Z,47.20
2022-12-29T13:26:16.984Z,47.10
2022-12-29T13:28:23.586Z,47.20
2022-12-29T13:30:31.131Z,47.00
2022-12-29T13:32:43.835Z,47.00
2022-12-29T13:34:45.527Z,46.80
2022-12-29T13:36:50.612Z,47.00
2022-12-29T13:39:01.281Z,47.00
2022-12-29T13:41:06.476Z,46.90
2022-12-29T13:43:09.233Z,47.00
2022-12-29T13:45:19.230Z,46.90
2022-12-29T13:47:39.504Z,47.10
2022-12-29T13:49:41.791Z,47.10
2022-12-29T13:51:47.857Z,47.00
2022-12-29T13:53:55.597Z,47.00
2022-12-29T13:56:04.722Z,46.90
2022-12-29T13:58:06.541Z,47.00
2022-12-29T14:00:16.453Z,47.10
2022-12-29T14:02:21.221Z,46.90
2022-12-29T14:04:24.520Z,47.20
2022-12-29T14:06:27.634Z,47.10
2022-12-29T14:08:29.364Z,47.00
2022-12-29T14:10:34.117Z,46.90
2022-12-29T14:12:37.692Z,46.80
2022-12-29T14:14:42.916Z,46.90
2022-12-29T14:16:44.761Z,47.10
2022-12-29T14:18:46.749Z,47.10
2022-12-29T14:20:59.317Z,47.30
2022-12-29T14:23:01.104Z,47.20
2022-12-29T14:25:02.846Z,47.20
2022-12-29T14:27:11.556Z,46.90
2022-12-29T14:29:24.927Z,47.00
2022-12-29T14:31:29.427Z,47.00
2022-12-29T14:33:32.321Z,47.00
2022-12-29T14:35:41.689Z,47.00
2022-12-29T14:37:43.531Z,47.10
2022-12-29T14:39:46.189Z,47.00
2022-12-29T14:41:48.065Z,47.10
2022-12-29T14:43:58.154Z,47.10
2022-12-29T14:46:01.038Z,47.00
2022-12-29T14:48:21.194Z,47.00
2022-12-29T14:50:23.041Z,47.00
2022-12-29T14:52:26.329Z,47.00
2022-12-29T14:54:34.054Z,47.00
2022-12-29T14:56:41.633Z,47.30
2022-12-29T14:59:00.784Z,47.30
2022-12-29T15:06:37.358Z,47.50
2022-12-29T15:08:41.627Z,47.30
2022-12-29T15:10:48.589Z,47.50
2022-12-29T15:12:53.550Z,47.80
2022-12-29T15:14:56.702Z,48.00
2022-12-29T15:16:58.763Z,48.00
2022-12-29T15:19:00.944Z,48.20
2022-12-29T15:21:07.085Z,48.10
2022-12-29T15:23:12.927Z,48.10
2022-12-29T15:25:16.586Z,48.20
2022-12-29T15:27:26.064Z,48.30
2022-12-29T15:29:37.779Z,48.30
2022-12-29T15:31:48.273Z,48.30
2022-12-29T15:34:02.400Z,48.50
2022-12-29T15:36:04.877Z,48.60
2022-12-29T15:38:17.406Z,48.80
2022-12-29T15:40:37.671Z,48.90
2022-12-29T15:42:53.719Z,49.00
2022-12-29T15:45:09.524Z,49.00
2022-12-29T15:47:15.444Z,49.00
2022-12-29T15:49:17.321Z,49.00
2022-12-29T15:51:39.525Z,49.10
2022-12-29T15:53:41.389Z,49.20
2022-12-29T15:55:45.089Z,49.10
2022-12-29T15:57:47.237Z,49.30
2022-12-29T15:59:49.219Z,49.40
2022-12-29T16:01:51.840Z,49.50
2022-12-29T16:03:54.230Z,49.50
2022-12-29T16:05:57.557Z,49.60
2022-12-29T16:08:00.199Z,49.60
2022-12-29T16:10:02.545Z,49.80
2022-12-29T16:12:07.122Z,50.00
2022-12-29T16:14:11.353Z,49.80
2022-12-29T16:16:32.826Z,49.60
2022-12-29T16:18:36.496Z,49.40
2022-12-29T16:20:40.710Z,49.30
2022-12-29T16:22:47.076Z,49.30
2022-12-29T16:24:49.002Z,49.10
2022-12-29T16:26:52.617Z,49.00
2022-12-29T16:28:59.316Z,49.00
2022-12-29T16:31:05.334Z,48.90
2022-12-29T16:33:10.118Z,48.90
2022-12-29T16:35:11.916Z,48.80
2022-12-29T16:37:32.816Z,48.80
2022-12-29T16:39:35.625Z,48.80
2022-12-29T16:41:37.454Z,48.70
2022-12-29T16:43:39.252Z,48.70
2022-12-29T16:45:47.255Z,48.60
2022-12-29T16:47:55.699Z,48.70
2022-12-29T16:50:11.183Z,48.70
2022-12-29T16:52:20.417Z,48.70
2022-12-29T16:54:26.231Z,48.70
2022-12-29T16:56:29.644Z,48.70
2022-12-29T16:58:31.676Z,48.70
2022-12-29T17:00:36.808Z,48.60
2022-12-29T17:02:38.979Z,48.70
2022-12-29T17:04:41.035Z,48.50
2022-12-29T17:06:43.295Z,48.50
2022-12-29T17:08:45.596Z,48.50
2022-12-29T17:10:47.433Z,48.50
2022-12-29T17:12:49.460Z,48.50
2022-12-29T17:14:56.194Z,48.50
2022-12-29T17:16:58.070Z,48.40
2022-12-29T17:18:59.922Z,48.50
2022-12-29T17:21:01.950Z,48.60
2022-12-29T17:23:13.833Z,48.60
2022-12-29T17:25:16.903Z,48.60
2022-12-29T17:27:24.108Z,48.70
2022-12-29T17:29:31.885Z,48.70
2022-12-29T17:31:34.586Z,48.50
2022-12-29T17:33:38.158Z,48.60
2022-12-29T17:35:40.009Z,48.50
2022-12-29T17:37:41.947Z,48.50
2022-12-29T17:39:43.775Z,48.50
2022-12-29T17:41:46.073Z,48.50
2022-12-29T17:43:50.917Z,48.60
2022-12-29T17:45:56.457Z,49.10
2022-12-29T17:47:58.812Z,48.60
2022-12-29T17:50:00.613Z,48.60
2022-12-29T17:52:03.443Z,48.50
2022-12-29T17:54:05.236Z,48.50
2022-12-29T17:56:07.395Z,48.60
2022-12-29T17:58:11.978Z,48.60
2022-12-29T18:00:18.064Z,48.60
2022-12-29T18:02:27.358Z,48.60
2022-12-29T18:04:29.270Z,48.50
2022-12-29T18:06:30.999Z,48.60
2022-12-29T18:08:32.789Z,48.60
2022-12-29T18:10:34.814Z,48.50
2022-12-29T18:12:40.668Z,48.50
2022-12-29T18:14:42.433Z,48.40
2022-12-29T18:16:44.315Z,48.40
2022-12-29T18:18:46.122Z,48.50
2022-12-29T18:20:48.377Z,48.60
2022-12-29T18:22:50.125Z,48.60
2022-12-29T18:24:51.965Z,48.40
2022-12-29T18:26:53.744Z,48.40
2022-12-29T18:28:56.335Z,48.60
2022-12-29T18:30:59.405Z,48.60
2022-12-29T18:33:01.341Z,48.60
2022-12-29T18:35:03.259Z,48.50
2022-12-29T18:37:05.135Z,48.50
2022-12-29T18:39:06.926Z,48.50
2022-12-29T18:41:13.763Z,48.60
2022-12-29T18:43:16.287Z,48.60
2022-12-29T18:45:19.769Z,48.50
2022-12-29T18:47:21.485Z,48.60
2022-12-29T18:49:23.439Z,48.50
2022-12-29T18:51:25.893Z,48.60
2022-12-29T18:53:27.773Z,48.60
2022-12-29T18:55:29.940Z,48.50
2022-12-29T18:57:31.761Z,48.70
2022-12-29T18:59:33.515Z,48.70
2022-12-29T19:01:35.499Z,48.80
2022-12-29T19:03:37.363Z,48.80
2022-12-29T19:05:40.436Z,48.80
2022-12-29T19:07:42.166Z,48.80
2022-12-29T19:09:44.015Z,48.80
2022-12-29T19:11:45.829Z,48.90
2022-12-29T19:13:48.986Z,48.90
2022-12-29T19:15:50.866Z,49.00
2022-12-29T19:18:24.046Z,49.00
2022-12-29T19:20:33.706Z,49.10
2022-12-29T19:22:35.586Z,49.10
2022-12-29T19:24:37.304Z,49.20
2022-12-29T19:26:40.002Z,49.10
2022-12-29T19:28:41.799Z,49.10
2022-12-29T19:30:46.217Z,49.10
2022-12-29T19:32:52.108Z,49.20
2022-12-29T19:34:53.931Z,49.10
2022-12-29T19:36:55.667Z,49.10
2022-12-29T19:38:57.701Z,49.10
2022-12-29T19:40:59.435Z,49.10
2022-12-29T19:43:01.270Z,49.00
2022-12-29T19:45:04.178Z,49.00
2022-12-29T19:47:06.204Z,49.00
2022-12-29T19:49:08.065Z,49.10
2022-12-29T19:51:11.532Z,49.10
2022-12-29T19:53:13.487Z,49.10
2022-12-29T19:55:16.255Z,49.10
2022-12-29T19:57:18.333Z,48.90
2022-12-29T19:59:20.127Z,48.80
2022-12-29T20:01:23.208Z,49.00
2022-12-29T20:03:25.294Z,49.10
2022-12-29T20:05:27.074Z,49.00
2022-12-29T20:07:28.987Z,49.00
2022-12-29T20:09:30.863Z,49.10
2022-12-29T20:11:32.703Z,49.10
2022-12-29T20:13:35.030Z,49.20
2022-12-29T20:15:36.902Z,49.10
2022-12-29T20:18:11.871Z,49.20
2022-12-29T20:20:00.490Z,49.20
2022-12-29T20:22:02.903Z,49.30
2022-12-29T20:24:04.899Z,49.20
2022-12-29T20:26:06.847Z,49.30
2022-12-29T20:28:08.684Z,49.30
2022-12-29T20:30:10.575Z,49.30
2022-12-29T20:32:16.514Z,49.40
2022-12-29T20:34:18.968Z,49.40
2022-12-29T20:36:22.408Z,49.40
2022-12-29T20:38:24.163Z,49.30
2022-12-29T20:40:27.252Z,49.40
2022-12-29T20:42:28.977Z,49.40
2022-12-29T20:44:31.866Z,49.50
2022-12-29T20:46:39.418Z,49.50
2022-12-29T20:48:45.229Z,49.50
2022-12-29T20:50:46.955Z,49.60
2022-12-29T20:52:49.034Z,49.70
2022-12-29T20:54:50.851Z,49.70
2022-12-29T20:56:52.739Z,49.70
2022-12-29T21:01:19.560Z,49.70
2022-12-29T21:03:21.719Z,49.70
2022-12-29T21:05:25.136Z,49.70
2022-12-29T21:07:27.497Z,49.80
2022-12-29T21:09:29.291Z,49.80
2022-12-29T21:11:31.073Z,49.80
2022-12-29T21:13:32.870Z,49.70
2022-12-29T21:15:34.606Z,49.70
2022-12-29T21:17:36.615Z,49.90
2022-12-29T21:19:38.343Z,50.00
2022-12-29T21:21:40.111Z,49.90
2022-12-29T21:23:41.955Z,50.00
2022-12-29T21:25:44.272Z,49.90
2022-12-29T21:27:45.993Z,49.90
2022-12-29T21:29:47.794Z,49.70
2022-12-29T21:31:49.602Z,49.70
2022-12-29T21:33:51.734Z,49.80
2022-12-29T21:35:53.474Z,50.00
2022-12-29T21:37:55.274Z,49.90
2022-12-29T21:39:57.027Z,49.90
2022-12-29T21:41:58.876Z,49.70
2022-12-29T21:44:01.015Z,49.70
2022-12-29T21:46:03.176Z,49.70
2022-12-29T21:48:05.872Z,49.70
2022-12-29T21:50:07.847Z,49.80
2022-12-29T21:52:09.592Z,49.70
2022-12-29T21:54:11.591Z,49.80
2022-12-29T21:56:17.593Z,49.70
2022-12-29T21:58:19.377Z,49.70
2022-12-29T22:00:21.235Z,49.70
2022-12-29T22:02:24.514Z,49.60
2022-12-29T22:04:26.373Z,49.60
2022-12-29T22:06:29.402Z,49.70
2022-12-29T22:08:31.119Z,49.60
2022-12-29T22:10:33.419Z,49.60
2022-12-29T22:12:35.575Z,49.50
2022-12-29T22:14:37.395Z,49.50
2022-12-29T22:16:39.208Z,49.50
2022-12-29T22:18:40.977Z,49.60
2022-12-29T22:20:42.687Z,49.60
2022-12-29T22:22:44.560Z,49.60
2022-12-29T22:24:46.287Z,49.70
2022-12-29T22:26:48.065Z,50.10
2022-12-29T22:28:49.858Z,49.50
2022-12-29T22:30:51.743Z,49.50
2022-12-29T22:32:53.561Z,49.40
2022-12-29T22:34:55.478Z,49.40
2022-12-29T22:36:57.190Z,49.40
2022-12-29T22:38:59.073Z,49.30
2022-12-29T22:41:00.894Z,49.50
2022-12-29T22:43:05.587Z,49.40
2022-12-29T22:45:11.485Z,49.40
2022-12-29T22:47:13.283Z,49.40
2022-12-29T22:49:14.977Z,49.40
2022-12-29T22:51:16.773Z,49.40
2022-12-29T22:53:18.535Z,49.30
2022-12-29T22:55:20.329Z,49.40
2022-12-29T22:57:22.068Z,49.40
2022-12-29T22:59:23.894Z,49.40
2022-12-29T23:01:25.712Z,49.40
2022-12-29T23:03:28.831Z,49.50
2022-12-29T23:05:30.643Z,49.60
2022-12-29T23:07:33.758Z,49.60
2022-12-29T23:09:35.536Z,49.60
2022-12-29T23:11:37.361Z,50.00
2022-12-29T23:13:39.125Z,50.20
2022-12-29T23:15:40.940Z,49.50
2022-12-29T23:17:42.704Z,49.50
2022-12-29T23:19:44.549Z,49.50
2022-12-29T23:21:46.281Z,50.20
2022-12-29T23:23:49.620Z,49.60
2022-12-29T23:25:51.669Z,49.60
2022-12-29T23:27:53.459Z,49.60
2022-12-29T23:29:55.278Z,49.70
2022-12-29T23:31:57.044Z,49.70
2022-12-29T23:33:59.326Z,49.70
2022-12-29T23:36:01.274Z,49.70
2022-12-29T23:38:03.006Z,49.80
2022-12-29T23:40:05.022Z,49.80
2022-12-29T23:42:06.772Z,49.90
2022-12-29T23:44:08.691Z,50.00
2022-12-29T23:46:14.789Z,50.00
2022-12-29T23:48:16.633Z,50.00
2022-12-29T23:50:18.373Z,50.10
2022-12-29T23:52:20.356Z,50.10
2022-12-29T23:54:22.078Z,50.20
2022-12-29T23:56:25.352Z,50.20
2022-12-29T23:58:29.510Z,50.30
